createdAt,value
2023-03-01T12:18:10.976Z,148.75
2023-03-01T12:20:49.374Z,148.50
2023-03-01T12:23:54.371Z,138.75
2023-03-01T12:26:54.480Z,132.25
2023-03-01T12:29:37.506Z,132.00
2023-03-01T12:32:44.647Z,140.50
2023-03-01T12:35:32.359Z,204.00
2023-03-01T12:38:37.644Z,161.25
2023-03-01T12:41:29.165Z,155.75
2023-03-01T12:44:20.747Z,239.75
2023-03-01T12:47:12.526Z,203.25
2023-03-01T12:49:44.322Z,150.00
2023-03-01T12:56:15.155Z,120.75
2023-03-01T12:59:09.258Z,113.25
2023-03-01T13:02:06.722Z,185.00
2023-03-01T13:04:37.667Z,215.75
2023-03-01T13:07:22.952Z,213.25
2023-03-01T13:10:04.098Z,130.00
2023-03-01T13:13:13.141Z,128.00
2023-03-01T13:15:40.633Z,122.75
2023-03-01T13:18:16.796Z,150.50
2023-03-01T13:20:43.598Z,155.25
2023-03-01T13:23:22.580Z,174.00
2023-03-01T13:26:16.839Z,185.00
2023-03-01T13:28:47.081Z,209.25
2023-03-01T13:31:21.176Z,215.75
2023-03-01T13:33:48.922Z,253.50
2023-03-01T13:36:32.474Z,266.50
2023-03-01T13:39:00.434Z,251.50
2023-03-01T13:41:42.231Z,243.00
2023-03-01T13:44:30.134Z,170.25
2023-03-01T13:47:02.486Z,139.00
2023-03-01T13:49:45.590Z,152.50
2023-03-01T13:52:41.931Z,175.50
2023-03-01T13:55:11.831Z,210.25
2023-03-01T13:57:42.293Z,220.25
2023-03-01T14:00:30.877Z,246.50
2023-03-01T14:03:10.700Z,229.00
2023-03-01T14:05:38.966Z,247.00
2023-03-01T14:08:18.453Z,226.50
2023-03-01T14:11:21.583Z,224.25
2023-03-01T14:14:24.909Z,230.00
2023-03-01T14:17:06.454Z,220.25
2023-03-01T14:19:34.821Z,227.00
2023-03-01T14:22:22.006Z,229.50
2023-03-01T14:24:55.341Z,233.00
2023-03-01T14:27:23.664Z,204.00
2023-03-01T14:30:02.142Z,179.75
2023-03-01T14:32:31.964Z,189.25
2023-03-01T14:35:00.948Z,246.00
2023-03-01T14:37:29.950Z,208.75
2023-03-01T14:39:58.621Z,268.50
2023-03-01T14:42:30.151Z,208.25
2023-03-01T14:44:59.070Z,301.00
2023-03-01T14:47:36.473Z,288.75
2023-03-01T14:50:17.989Z,340.00
2023-03-01T14:52:48.077Z,358.75
2023-03-01T14:55:19.307Z,365.50
2023-03-01T14:57:49.355Z,312.80
2023-03-01T15:00:25.442Z,355.80
2023-03-01T15:02:54.654Z,352.00
2023-03-01T15:05:47.444Z,320.00
2023-03-01T15:08:23.778Z,383.00
2023-03-01T15:11:23.925Z,407.60
2023-03-01T15:13:51.181Z,376.00
2023-03-01T15:16:21.053Z,351.33
2023-03-01T15:18:51.062Z,306.50
2023-03-01T15:21:20.098Z,306.00
2023-03-01T15:24:20.537Z,359.40
2023-03-01T15:26:58.652Z,282.00
2023-03-01T15:29:31.122Z,351.80
2023-03-01T15:31:59.817Z,353.50
2023-03-01T15:34:30.385Z,359.00
2023-03-01T15:37:00.117Z,320.50
2023-03-01T15:39:54.147Z,356.25
2023-03-01T15:42:30.247Z,310.20
2023-03-01T15:45:31.716Z,315.33
2023-03-01T15:48:03.004Z,351.40
2023-03-01T15:50:34.060Z,318.75
2023-03-01T15:53:02.522Z,265.75
2023-03-01T15:55:31.620Z,215.50
2023-03-01T15:58:16.973Z,171.25
2023-03-01T16:00:59.413Z,226.00
2023-03-01T16:03:27.227Z,282.50
2023-03-01T16:05:54.693Z,266.25
2023-03-01T16:08:21.551Z,291.75
2023-03-01T16:10:50.970Z,292.75
2023-03-01T16:13:18.811Z,347.40
2023-03-01T16:15:45.758Z,361.00
2023-03-01T16:18:13.054Z,337.20
2023-03-01T16:20:41.157Z,323.00
2023-03-01T16:23:11.285Z,311.75
2023-03-01T16:25:39.000Z,188.25
2023-03-01T16:28:09.993Z,170.25
2023-03-01T16:30:39.074Z,168.50
2023-03-01T16:33:24.448Z,172.25
2023-03-01T16:35:56.043Z,202.75
2023-03-01T16:38:22.914Z,246.50
2023-03-01T16:40:51.405Z,281.75
2023-03-01T16:43:18.276Z,310.00
2023-03-01T16:45:46.420Z,273.25
2023-03-01T16:48:13.697Z,254.75
2023-03-01T16:50:40.729Z,285.00
2023-03-01T16:53:07.505Z,323.50
2023-03-01T16:55:34.539Z,305.75
2023-03-01T16:58:01.936Z,353.50
2023-03-01T17:00:29.237Z,313.80
2023-03-01T17:02:56.176Z,327.80
2023-03-01T17:05:24.966Z,353.00
2023-03-01T17:07:52.378Z,359.80
2023-03-01T17:10:19.352Z,324.25
2023-03-01T17:12:50.600Z,320.25
2023-03-01T17:15:17.572Z,303.25
2023-03-01T17:17:44.684Z,317.75
2023-03-01T17:20:11.805Z,318.33
2023-03-01T17:22:38.630Z,287.50
2023-03-01T17:25:09.785Z,315.00
2023-03-01T17:27:38.435Z,278.25
2023-03-01T17:30:07.424Z,238.00
2023-03-01T17:32:34.406Z,258.50
2023-03-01T17:35:01.224Z,249.00
2023-03-01T17:37:28.018Z,303.00
2023-03-01T17:39:54.814Z,210.50
2023-03-01T17:42:21.627Z,341.60
2023-03-01T17:44:48.663Z,348.25
2023-03-01T17:47:15.443Z,313.50
2023-03-01T17:49:42.220Z,281.25
2023-03-01T17:52:09.108Z,295.25
2023-03-01T17:54:35.909Z,316.75
2023-03-01T17:57:02.820Z,355.20
2023-03-01T17:59:31.455Z,332.50
2023-03-01T18:01:58.616Z,344.67
2023-03-01T18:04:25.369Z,341.00
2023-03-01T18:06:52.189Z,317.50
2023-03-01T18:09:19.249Z,298.00
2023-03-01T18:11:47.837Z,308.75
2023-03-01T18:14:14.808Z,272.50
2023-03-01T18:16:41.594Z,295.50
2023-03-01T18:19:08.361Z,330.75
2023-03-01T18:21:35.172Z,331.50
2023-03-01T18:24:02.026Z,355.60
2023-03-01T18:26:29.873Z,327.60
2023-03-01T18:29:01.320Z,347.80
2023-03-01T18:31:32.589Z,301.75
2023-03-01T18:34:01.209Z,315.50
2023-03-01T18:36:33.671Z,297.25
2023-03-01T18:39:04.192Z,289.50
2023-03-01T18:41:31.527Z,288.00
2023-03-01T18:43:58.905Z,285.50
2023-03-01T18:46:26.385Z,259.25
2023-03-01T18:48:54.035Z,231.50
2023-03-01T18:51:24.519Z,227.50
2023-03-01T18:53:51.378Z,274.00
2023-03-01T18:56:18.256Z,275.25
2023-03-01T18:58:45.162Z,308.25
2023-03-01T19:01:17.333Z,289.25
2023-03-01T19:03:44.405Z,268.50
2023-03-01T19:06:11.433Z,273.75
2023-03-01T19:08:40.498Z,323.25
2023-03-01T19:11:08.268Z,365.25
2023-03-01T19:13:37.511Z,310.00
2023-03-01T19:16:13.180Z,325.25
2023-03-01T19:18:41.684Z,294.50
2023-03-01T19:21:10.238Z,301.50
2023-03-01T19:23:38.633Z,270.50
2023-03-01T19:26:11.851Z,362.00
2023-03-01T19:28:39.884Z,402.20
2023-03-01T19:31:25.847Z,369.60
2023-03-01T19:33:57.056Z,396.00
2023-03-01T19:36:33.527Z,437.60
2023-03-01T19:39:01.907Z,437.40
2023-03-01T19:41:29.711Z,422.80
2023-03-01T19:43:57.469Z,383.00
2023-03-01T19:46:25.368Z,361.60
2023-03-01T19:48:54.091Z,359.80
2023-03-01T19:51:20.985Z,364.00
2023-03-01T19:53:47.991Z,316.25
2023-03-01T19:56:14.885Z,351.75
2023-03-01T19:58:41.708Z,357.60
2023-03-01T20:01:20.287Z,350.40
2023-03-01T20:03:48.399Z,294.00
2023-03-01T20:06:20.356Z,305.25
2023-03-01T20:08:48.248Z,301.25
2023-03-01T20:11:16.547Z,254.75
2023-03-01T20:13:43.916Z,252.75
2023-03-01T20:16:10.934Z,236.25
2023-03-01T20:18:37.799Z,226.50
2023-03-01T20:21:09.289Z,135.50
2023-03-01T20:23:46.782Z,152.75
2023-03-01T20:26:19.051Z,248.25
2023-03-01T20:28:50.560Z,316.00
2023-03-01T20:31:19.897Z,298.25
2023-03-01T20:33:46.925Z,246.75
2023-03-01T20:36:14.571Z,258.25
2023-03-01T20:38:41.464Z,275.25
2023-03-01T20:41:11.198Z,266.00
2023-03-01T20:43:38.969Z,245.25
2023-03-01T20:46:14.969Z,258.50
2023-03-01T20:48:43.207Z,271.00
2023-03-01T20:51:11.812Z,285.50
2023-03-01T20:53:38.840Z,321.50
2023-03-01T20:56:11.670Z,297.75
2023-03-01T20:58:39.374Z,276.25
2023-03-01T21:01:07.371Z,284.25
2023-03-01T21:03:35.046Z,269.00
2023-03-01T21:06:03.907Z,220.00
2023-03-01T21:08:31.019Z,244.50
2023-03-01T21:10:58.722Z,250.00
2023-03-01T21:13:27.520Z,194.25
2023-03-01T21:16:00.966Z,218.00
2023-03-01T21:18:30.110Z,202.75
2023-03-01T21:21:01.184Z,187.25
2023-03-01T21:23:33.487Z,195.75
2023-03-01T21:26:12.016Z,186.25
2023-03-01T21:28:39.834Z,194.25
2023-03-01T21:31:14.533Z,228.75
2023-03-01T21:33:46.146Z,216.00
2023-03-01T21:36:13.238Z,203.75
2023-03-01T21:38:42.549Z,196.75
2023-03-01T21:41:14.921Z,205.25
2023-03-01T21:43:43.560Z,181.00
2023-03-01T21:46:14.350Z,174.25
2023-03-01T21:48:44.287Z,151.25
2023-03-01T21:51:15.110Z,162.50
2023-03-01T21:53:43.019Z,177.50
2023-03-01T21:56:14.784Z,186.50
2023-03-01T21:58:41.629Z,215.00
2023-03-01T22:01:11.800Z,204.25
2023-03-01T22:03:47.457Z,228.75
2023-03-01T22:06:24.501Z,224.00
2023-03-01T22:08:58.372Z,223.50
2023-03-01T22:11:28.917Z,160.75
2023-03-01T22:13:56.850Z,216.75
2023-03-01T22:16:26.565Z,255.75
2023-03-01T22:18:54.301Z,235.50
2023-03-01T22:21:23.054Z,219.75
2023-03-01T22:23:50.197Z,182.00
2023-03-01T22:26:27.368Z,177.00
2023-03-01T22:28:56.236Z,144.00
2023-03-01T22:31:23.616Z,103.00
2023-03-01T22:33:51.882Z,98.50
2023-03-01T22:36:18.849Z,205.00
2023-03-01T22:38:46.766Z,291.50
2023-03-01T22:41:13.558Z,200.75
2023-03-01T22:43:40.530Z,204.25
2023-03-01T22:46:15.852Z,195.25
2023-03-01T22:48:42.804Z,160.25
2023-03-01T22:51:14.660Z,131.75
2023-03-01T22:53:41.443Z,154.25
2023-03-01T22:56:17.145Z,173.25
2023-03-01T22:58:44.290Z,130.00
2023-03-01T23:01:16.286Z,147.00
2023-03-01T23:03:43.484Z,158.25
2023-03-01T23:06:10.459Z,166.50
2023-03-01T23:08:37.941Z,192.00
2023-03-01T23:11:14.030Z,223.25
2023-03-01T23:13:41.477Z,183.25
2023-03-01T23:16:08.803Z,168.25
2023-03-01T23:18:35.692Z,133.50
2023-03-01T23:21:18.999Z,175.50
2023-03-01T23:23:49.596Z,101.75
2023-03-01T23:26:17.343Z,95.00
2023-03-01T23:28:44.706Z,120.00
2023-03-01T23:31:14.134Z,174.50
2023-03-01T23:33:44.504Z,208.25
2023-03-01T23:36:23.985Z,218.75
2023-03-01T23:38:53.788Z,263.75
2023-03-01T23:41:23.040Z,211.50
2023-03-01T23:43:52.519Z,183.75
2023-03-01T23:46:21.186Z,145.25
2023-03-01T23:48:48.705Z,167.50
2023-03-01T23:51:17.732Z,154.50
2023-03-01T23:53:56.384Z,140.00
2023-03-01T23:56:32.544Z,117.75
2023-03-01T23:59:01.929Z,128.00
